sensor_id;sensor_type;location;lat;lon;timestamp;P1;durP1;ratioP1;P2;durP2;ratioP2
8488;SDS011;4281;45.772;12.852;2023-02-07T00:00:53;9.93;;;8.37;;
8488;SDS011;4281;45.772;12.852;2023-02-07T00:03:21;9.97;;;7.90;;
8488;SDS011;4281;45.772;12.852;2023-02-07T00:05:49;10.83;;;8.37;;
8488;SDS011;4281;45.772;12.852;2023-02-07T00:08:16;9.80;;;8.13;;
8488;SDS011;4281;45.772;12.852;2023-02-07T00:10:44;9.10;;;6.83;;
8488;SDS011;4281;45.772;12.852;2023-02-07T00:13:12;11.30;;;8.40;;
8488;SDS011;4281;45.772;12.852;2023-02-07T00:15:40;9.80;;;7.93;;
8488;SDS011;4281;45.772;12.852;2023-02-07T00:18:09;10.00;;;7.87;;
8488;SDS011;4281;45.772;12.852;2023-02-07T00:20:36;8.93;;;7.43;;
8488;SDS011;4281;45.772;12.852;2023-02-07T00:23:04;10.57;;;8.80;;
8488;SDS011;4281;45.772;12.852;2023-02-07T00:25:32;10.70;;;8.43;;
8488;SDS011;4281;45.772;12.852;2023-02-07T00:28:00;11.03;;;8.83;;
8488;SDS011;4281;45.772;12.852;2023-02-07T00:30:28;10.67;;;9.23;;
8488;SDS011;4281;45.772;12.852;2023-02-07T00:32:56;10.23;;;8.37;;
8488;SDS011;4281;45.772;12.852;2023-02-07T00:35:26;9.73;;;7.83;;
8488;SDS011;4281;45.772;12.852;2023-02-07T00:37:53;10.80;;;9.00;;
8488;SDS011;4281;45.772;12.852;2023-02-07T00:40:21;9.20;;;8.00;;
8488;SDS011;4281;45.772;12.852;2023-02-07T00:42:49;10.43;;;8.10;;
8488;SDS011;4281;45.772;12.852;2023-02-07T00:45:17;9.37;;;7.70;;
8488;SDS011;4281;45.772;12.852;2023-02-07T00:47:44;9.00;;;7.93;;
8488;SDS011;4281;45.772;12.852;2023-02-07T00:50:12;9.97;;;7.80;;
8488;SDS011;4281;45.772;12.852;2023-02-07T00:52:41;9.43;;;7.63;;
8488;SDS011;4281;45.772;12.852;2023-02-07T00:55:09;10.30;;;8.33;;
8488;SDS011;4281;45.772;12.852;2023-02-07T00:57:37;9.23;;;7.80;;
8488;SDS011;4281;45.772;12.852;2023-02-07T01:00:05;9.20;;;7.63;;
8488;SDS011;4281;45.772;12.852;2023-02-07T01:02:34;8.93;;;7.67;;
8488;SDS011;4281;45.772;12.852;2023-02-07T01:05:02;10.93;;;8.73;;
8488;SDS011;4281;45.772;12.852;2023-02-07T01:07:32;9.17;;;7.47;;
8488;SDS011;4281;45.772;12.852;2023-02-07T01:10:01;9.40;;;7.80;;
8488;SDS011;4281;45.772;12.852;2023-02-07T01:12:28;10.93;;;8.73;;
8488;SDS011;4281;45.772;12.852;2023-02-07T01:14:57;11.23;;;8.63;;
8488;SDS011;4281;45.772;12.852;2023-02-07T01:17:25;10.00;;;8.20;;
8488;SDS011;4281;45.772;12.852;2023-02-07T01:19:55;10.40;;;8.40;;
8488;SDS011;4281;45.772;12.852;2023-02-07T01:22:23;13.27;;;9.70;;
8488;SDS011;4281;45.772;12.852;2023-02-07T01:24:51;11.03;;;8.83;;
8488;SDS011;4281;45.772;12.852;2023-02-07T01:27:21;10.83;;;8.43;;
8488;SDS011;4281;45.772;12.852;2023-02-07T01:29:49;10.57;;;8.10;;
8488;SDS011;4281;45.772;12.852;2023-02-07T01:32:17;10.93;;;8.20;;
8488;SDS011;4281;45.772;12.852;2023-02-07T01:34:45;12.37;;;8.63;;
8488;SDS011;4281;45.772;12.852;2023-02-07T01:37:13;9.43;;;8.27;;
8488;SDS011;4281;45.772;12.852;2023-02-07T01:39:40;12.30;;;9.00;;
8488;SDS011;4281;45.772;12.852;2023-02-07T01:42:09;10.73;;;8.27;;
8488;SDS011;4281;45.772;12.852;2023-02-07T01:45:00;10.30;;;7.87;;
8488;SDS011;4281;45.772;12.852;2023-02-07T01:47:30;13.37;;;8.67;;
8488;SDS011;4281;45.772;12.852;2023-02-07T01:49:58;11.93;;;8.27;;
8488;SDS011;4281;45.772;12.852;2023-02-07T01:52:27;10.33;;;7.97;;
8488;SDS011;4281;45.772;12.852;2023-02-07T01:55:00;11.67;;;8.67;;
8488;SDS011;4281;45.772;12.852;2023-02-07T01:57:29;12.10;;;8.70;;
8488;SDS011;4281;45.772;12.852;2023-02-07T01:59:58;10.17;;;8.13;;
8488;SDS011;4281;45.772;12.852;2023-02-07T02:02:27;9.77;;;7.83;;
8488;SDS011;4281;45.772;12.852;2023-02-07T02:04:58;10.60;;;9.03;;
8488;SDS011;4281;45.772;12.852;2023-02-07T02:07:26;10.50;;;8.20;;
8488;SDS011;4281;45.772;12.852;2023-02-07T02:09:54;11.03;;;8.63;;
8488;SDS011;4281;45.772;12.852;2023-02-07T02:12:25;9.93;;;8.40;;
8488;SDS011;4281;45.772;12.852;2023-02-07T02:15:06;9.07;;;8.00;;
8488;SDS011;4281;45.772;12.852;2023-02-07T02:17:42;10.70;;;8.27;;
8488;SDS011;4281;45.772;12.852;2023-02-07T02:20:36;9.90;;;8.30;;
8488;SDS011;4281;45.772;12.852;2023-02-07T02:23:27;8.97;;;7.20;;
8488;SDS011;4281;45.772;12.852;2023-02-07T02:26:17;9.37;;;7.07;;
8488;SDS011;4281;45.772;12.852;2023-02-07T02:29:02;8.73;;;7.17;;
8488;SDS011;4281;45.772;12.852;2023-02-07T02:32:07;9.73;;;7.53;;
8488;SDS011;4281;45.772;12.852;2023-02-07T02:34:54;10.73;;;7.63;;
8488;SDS011;4281;45.772;12.852;2023-02-07T02:37:28;9.27;;;7.57;;
8488;SDS011;4281;45.772;12.852;2023-02-07T02:40:01;9.70;;;7.33;;
8488;SDS011;4281;45.772;12.852;2023-02-07T02:42:32;9.93;;;7.40;;
8488;SDS011;4281;45.772;12.852;2023-02-07T02:45:06;10.20;;;7.60;;
8488;SDS011;4281;45.772;12.852;2023-02-07T02:47:36;8.57;;;7.00;;
8488;SDS011;4281;45.772;12.852;2023-02-07T02:50:09;8.13;;;7.10;;
8488;SDS011;4281;45.772;12.852;2023-02-07T02:52:37;9.60;;;7.83;;
8488;SDS011;4281;45.772;12.852;2023-02-07T02:55:16;10.07;;;8.03;;
8488;SDS011;4281;45.772;12.852;2023-02-07T02:57:57;10.60;;;8.20;;
8488;SDS011;4281;45.772;12.852;2023-02-07T03:00:36;8.93;;;7.50;;
8488;SDS011;4281;45.772;12.852;2023-02-07T03:03:26;10.23;;;7.77;;
8488;SDS011;4281;45.772;12.852;2023-02-07T03:06:05;9.40;;;7.40;;
8488;SDS011;4281;45.772;12.852;2023-02-07T03:08:39;8.73;;;7.13;;
8488;SDS011;4281;45.772;12.852;2023-02-07T03:11:08;9.17;;;7.87;;
8488;SDS011;4281;45.772;12.852;2023-02-07T03:13:40;10.97;;;8.47;;
8488;SDS011;4281;45.772;12.852;2023-02-07T03:16:16;10.07;;;8.23;;
8488;SDS011;4281;45.772;12.852;2023-02-07T03:18:47;10.17;;;7.80;;
8488;SDS011;4281;45.772;12.852;2023-02-07T03:21:24;11.40;;;8.63;;
8488;SDS011;4281;45.772;12.852;2023-02-07T03:23:54;9.87;;;7.97;;
8488;SDS011;4281;45.772;12.852;2023-02-07T03:26:23;11.17;;;8.37;;
8488;SDS011;4281;45.772;12.852;2023-02-07T03:28:52;9.47;;;7.97;;
8488;SDS011;4281;45.772;12.852;2023-02-07T03:31:21;9.93;;;7.97;;
8488;SDS011;4281;45.772;12.852;2023-02-07T03:33:52;11.87;;;7.80;;
8488;SDS011;4281;45.772;12.852;2023-02-07T03:36:21;11.13;;;8.77;;
8488;SDS011;4281;45.772;12.852;2023-02-07T03:38:53;11.70;;;9.50;;
8488;SDS011;4281;45.772;12.852;2023-02-07T03:41:22;10.87;;;8.77;;
8488;SDS011;4281;45.772;12.852;2023-02-07T03:43:53;10.93;;;9.03;;
8488;SDS011;4281;45.772;12.852;2023-02-07T03:49:18;10.03;;;8.33;;
8488;SDS011;4281;45.772;12.852;2023-02-07T03:51:48;10.87;;;8.20;;
8488;SDS011;4281;45.772;12.852;2023-02-07T03:54:17;11.37;;;8.93;;
8488;SDS011;4281;45.772;12.852;2023-02-07T03:56:45;10.37;;;8.20;;
8488;SDS011;4281;45.772;12.852;2023-02-07T03:59:13;12.03;;;9.00;;
8488;SDS011;4281;45.772;12.852;2023-02-07T04:01:40;10.97;;;8.23;;
8488;SDS011;4281;45.772;12.852;2023-02-07T04:07:31;9.87;;;8.10;;
8488;SDS011;4281;45.772;12.852;2023-02-07T04:09:58;10.20;;;8.17;;
8488;SDS011;4281;45.772;12.852;2023-02-07T04:12:27;9.93;;;8.07;;
8488;SDS011;4281;45.772;12.852;2023-02-07T04:14:58;10.73;;;8.40;;
8488;SDS011;4281;45.772;12.852;2023-02-07T04:17:25;10.03;;;7.60;;
8488;SDS011;4281;45.772;12.852;2023-02-07T04:19:56;10.57;;;8.80;;
8488;SDS011;4281;45.772;12.852;2023-02-07T04:22:26;10.13;;;8.03;;
8488;SDS011;4281;45.772;12.852;2023-02-07T04:24:56;10.27;;;8.27;;
8488;SDS011;4281;45.772;12.852;2023-02-07T04:27:23;9.97;;;8.00;;
8488;SDS011;4281;45.772;12.852;2023-02-07T04:29:51;9.60;;;7.67;;
8488;SDS011;4281;45.772;12.852;2023-02-07T04:32:19;10.50;;;8.33;;
8488;SDS011;4281;45.772;12.852;2023-02-07T04:34:46;9.87;;;8.10;;
8488;SDS011;4281;45.772;12.852;2023-02-07T04:37:14;9.30;;;7.67;;
8488;SDS011;4281;45.772;12.852;2023-02-07T04:39:42;8.57;;;7.10;;
8488;SDS011;4281;45.772;12.852;2023-02-07T04:42:11;9.00;;;7.77;;
8488;SDS011;4281;45.772;12.852;2023-02-07T04:44:39;8.87;;;7.47;;
8488;SDS011;4281;45.772;12.852;2023-02-07T04:47:06;9.93;;;7.73;;
8488;SDS011;4281;45.772;12.852;2023-02-07T04:49:34;9.60;;;7.70;;
8488;SDS011;4281;45.772;12.852;2023-02-07T04:52:02;9.10;;;7.23;;
8488;SDS011;4281;45.772;12.852;2023-02-07T04:54:30;10.30;;;7.63;;
8488;SDS011;4281;45.772;12.852;2023-02-07T04:56:57;10.53;;;7.63;;
8488;SDS011;4281;45.772;12.852;2023-02-07T04:59:26;10.13;;;8.00;;
8488;SDS011;4281;45.772;12.852;2023-02-07T05:01:54;10.97;;;8.40;;
8488;SDS011;4281;45.772;12.852;2023-02-07T05:04:22;9.20;;;7.60;;
8488;SDS011;4281;45.772;12.852;2023-02-07T05:06:50;9.33;;;7.47;;
8488;SDS011;4281;45.772;12.852;2023-02-07T05:09:17;9.90;;;7.50;;
8488;SDS011;4281;45.772;12.852;2023-02-07T05:11:45;11.27;;;7.27;;
8488;SDS011;4281;45.772;12.852;2023-02-07T05:14:13;10.53;;;7.50;;
8488;SDS011;4281;45.772;12.852;2023-02-07T05:16:42;9.83;;;7.93;;
8488;SDS011;4281;45.772;12.852;2023-02-07T05:19:09;9.73;;;7.43;;
8488;SDS011;4281;45.772;12.852;2023-02-07T05:21:37;9.67;;;7.23;;
8488;SDS011;4281;45.772;12.852;2023-02-07T05:24:05;9.47;;;7.40;;
8488;SDS011;4281;45.772;12.852;2023-02-07T05:26:33;9.33;;;7.70;;
8488;SDS011;4281;45.772;12.852;2023-02-07T05:29:01;10.30;;;7.07;;
8488;SDS011;4281;45.772;12.852;2023-02-07T05:31:29;10.40;;;7.67;;
8488;SDS011;4281;45.772;12.852;2023-02-07T05:34:12;9.30;;;7.70;;
8488;SDS011;4281;45.772;12.852;2023-02-07T05:36:39;10.40;;;8.33;;
8488;SDS011;4281;45.772;12.852;2023-02-07T05:39:07;10.23;;;7.90;;
8488;SDS011;4281;45.772;12.852;2023-02-07T05:41:35;10.53;;;8.23;;
8488;SDS011;4281;45.772;12.852;2023-02-07T05:44:03;10.00;;;7.40;;
8488;SDS011;4281;45.772;12.852;2023-02-07T05:49:14;11.40;;;8.40;;
8488;SDS011;4281;45.772;12.852;2023-02-07T05:51:42;10.47;;;7.53;;
8488;SDS011;4281;45.772;12.852;2023-02-07T05:54:10;10.87;;;8.47;;
8488;SDS011;4281;45.772;12.852;2023-02-07T05:56:38;10.67;;;8.07;;
8488;SDS011;4281;45.772;12.852;2023-02-07T05:59:05;10.93;;;8.20;;
8488;SDS011;4281;45.772;12.852;2023-02-07T06:01:33;11.67;;;8.30;;
8488;SDS011;4281;45.772;12.852;2023-02-07T06:04:02;9.93;;;8.10;;
8488;SDS011;4281;45.772;12.852;2023-02-07T06:06:31;10.77;;;7.77;;
8488;SDS011;4281;45.772;12.852;2023-02-07T06:08:59;11.30;;;7.43;;
8488;SDS011;4281;45.772;12.852;2023-02-07T06:11:28;10.03;;;7.73;;
8488;SDS011;4281;45.772;12.852;2023-02-07T06:13:56;9.67;;;7.50;;
8488;SDS011;4281;45.772;12.852;2023-02-07T06:16:24;10.70;;;7.63;;
8488;SDS011;4281;45.772;12.852;2023-02-07T06:18:52;10.17;;;7.33;;
8488;SDS011;4281;45.772;12.852;2023-02-07T06:21:19;10.73;;;7.33;;
8488;SDS011;4281;45.772;12.852;2023-02-07T06:23:50;11.03;;;7.47;;
8488;SDS011;4281;45.772;12.852;2023-02-07T06:26:18;10.43;;;7.70;;
8488;SDS011;4281;45.772;12.852;2023-02-07T06:28:45;9.77;;;7.63;;
8488;SDS011;4281;45.772;12.852;2023-02-07T06:31:13;10.17;;;7.87;;
8488;SDS011;4281;45.772;12.852;2023-02-07T06:33:41;10.23;;;8.20;;
8488;SDS011;4281;45.772;12.852;2023-02-07T06:36:09;11.07;;;8.73;;
8488;SDS011;4281;45.772;12.852;2023-02-07T06:38:36;10.67;;;8.30;;
8488;SDS011;4281;45.772;12.852;2023-02-07T06:41:06;9.13;;;8.13;;
8488;SDS011;4281;45.772;12.852;2023-02-07T06:43:36;10.43;;;7.80;;
8488;SDS011;4281;45.772;12.852;2023-02-07T06:46:04;10.97;;;8.00;;
8488;SDS011;4281;45.772;12.852;2023-02-07T06:48:31;9.53;;;7.93;;
8488;SDS011;4281;45.772;12.852;2023-02-07T06:50:59;9.07;;;7.57;;
8488;SDS011;4281;45.772;12.852;2023-02-07T06:53:27;10.57;;;7.83;;
8488;SDS011;4281;45.772;12.852;2023-02-07T06:55:54;9.77;;;7.70;;
8488;SDS011;4281;45.772;12.852;2023-02-07T06:58:24;11.43;;;8.10;;
8488;SDS011;4281;45.772;12.852;2023-02-07T07:00:51;11.80;;;8.00;;
8488;SDS011;4281;45.772;12.852;2023-02-07T07:03:19;9.27;;;7.30;;
8488;SDS011;4281;45.772;12.852;2023-02-07T07:05:52;10.50;;;8.80;;
8488;SDS011;4281;45.772;12.852;2023-02-07T07:08:20;11.87;;;8.90;;
8488;SDS011;4281;45.772;12.852;2023-02-07T07:10:48;10.57;;;8.17;;
8488;SDS011;4281;45.772;12.852;2023-02-07T07:13:15;11.10;;;8.43;;
8488;SDS011;4281;45.772;12.852;2023-02-07T07:15:44;11.27;;;8.53;;
8488;SDS011;4281;45.772;12.852;2023-02-07T07:18:12;11.57;;;9.37;;
8488;SDS011;4281;45.772;12.852;2023-02-07T07:20:40;11.23;;;8.23;;
8488;SDS011;4281;45.772;12.852;2023-02-07T07:23:08;11.90;;;8.90;;
8488;SDS011;4281;45.772;12.852;2023-02-07T07:25:36;13.37;;;8.90;;
8488;SDS011;4281;45.772;12.852;2023-02-07T07:28:04;12.73;;;9.30;;
8488;SDS011;4281;45.772;12.852;2023-02-07T07:30:32;13.57;;;10.23;;
8488;SDS011;4281;45.772;12.852;2023-02-07T07:33:01;11.70;;;9.80;;
8488;SDS011;4281;45.772;12.852;2023-02-07T07:35:29;15.07;;;10.90;;
8488;SDS011;4281;45.772;12.852;2023-02-07T07:37:57;12.17;;;9.93;;
8488;SDS011;4281;45.772;12.852;2023-02-07T07:40:25;11.97;;;9.97;;
8488;SDS011;4281;45.772;12.852;2023-02-07T07:42:52;14.43;;;11.10;;
8488;SDS011;4281;45.772;12.852;2023-02-07T07:45:20;13.03;;;10.23;;
8488;SDS011;4281;45.772;12.852;2023-02-07T07:47:48;14.93;;;11.57;;
8488;SDS011;4281;45.772;12.852;2023-02-07T07:50:17;14.23;;;11.10;;
8488;SDS011;4281;45.772;12.852;2023-02-07T07:52:45;13.10;;;10.70;;
8488;SDS011;4281;45.772;12.852;2023-02-07T07:55:13;13.60;;;10.90;;
8488;SDS011;4281;45.772;12.852;2023-02-07T07:57:41;13.10;;;10.37;;
8488;SDS011;4281;45.772;12.852;2023-02-07T08:00:09;14.20;;;10.83;;
8488;SDS011;4281;45.772;12.852;2023-02-07T08:02:39;14.73;;;10.73;;
8488;SDS011;4281;45.772;12.852;2023-02-07T08:05:07;14.80;;;10.50;;
8488;SDS011;4281;45.772;12.852;2023-02-07T08:07:40;15.10;;;10.93;;
8488;SDS011;4281;45.772;12.852;2023-02-07T08:10:07;13.07;;;10.57;;
8488;SDS011;4281;45.772;12.852;2023-02-07T08:12:35;12.67;;;10.03;;
8488;SDS011;4281;45.772;12.852;2023-02-07T08:15:03;13.27;;;10.10;;
8488;SDS011;4281;45.772;12.852;2023-02-07T08:17:33;13.13;;;10.20;;
8488;SDS011;4281;45.772;12.852;2023-02-07T08:20:00;12.40;;;10.30;;
8488;SDS011;4281;45.772;12.852;2023-02-07T08:22:28;13.83;;;11.07;;
8488;SDS011;4281;45.772;12.852;2023-02-07T08:24:57;13.70;;;10.90;;
8488;SDS011;4281;45.772;12.852;2023-02-07T08:27:25;14.13;;;9.97;;
8488;SDS011;4281;45.772;12.852;2023-02-07T08:29:53;14.03;;;10.80;;
8488;SDS011;4281;45.772;12.852;2023-02-07T08:32:20;12.77;;;10.87;;
8488;SDS011;4281;45.772;12.852;2023-02-07T08:34:48;13.50;;;10.10;;
8488;SDS011;4281;45.772;12.852;2023-02-07T08:37:16;11.97;;;9.57;;
8488;SDS011;4281;45.772;12.852;2023-02-07T08:39:44;13.13;;;9.37;;
8488;SDS011;4281;45.772;12.852;2023-02-07T08:42:13;12.93;;;9.47;;
8488;SDS011;4281;45.772;12.852;2023-02-07T08:44:41;12.03;;;9.10;;
8488;SDS011;4281;45.772;12.852;2023-02-07T08:47:09;10.77;;;8.90;;
8488;SDS011;4281;45.772;12.852;2023-02-07T08:49:37;11.77;;;9.13;;
8488;SDS011;4281;45.772;12.852;2023-02-07T08:52:05;11.13;;;8.60;;
8488;SDS011;4281;45.772;12.852;2023-02-07T08:54:34;10.77;;;8.57;;
8488;SDS011;4281;45.772;12.852;2023-02-07T08:57:02;10.30;;;8.83;;
8488;SDS011;4281;45.772;12.852;2023-02-07T08:59:31;11.30;;;8.97;;
8488;SDS011;4281;45.772;12.852;2023-02-07T09:01:59;13.60;;;8.47;;
8488;SDS011;4281;45.772;12.852;2023-02-07T09:04:27;9.90;;;8.23;;
8488;SDS011;4281;45.772;12.852;2023-02-07T09:06:54;10.23;;;8.17;;
8488;SDS011;4281;45.772;12.852;2023-02-07T09:09:22;10.80;;;8.93;;
8488;SDS011;4281;45.772;12.852;2023-02-07T09:11:51;10.17;;;8.20;;
8488;SDS011;4281;45.772;12.852;2023-02-07T09:14:19;10.93;;;9.00;;
8488;SDS011;4281;45.772;12.852;2023-02-07T09:16:48;12.57;;;8.73;;
8488;SDS011;4281;45.772;12.852;2023-02-07T09:19:16;10.53;;;8.50;;
8488;SDS011;4281;45.772;12.852;2023-02-07T09:21:43;11.37;;;9.03;;
8488;SDS011;4281;45.772;12.852;2023-02-07T09:24:11;12.80;;;9.47;;
8488;SDS011;4281;45.772;12.852;2023-02-07T09:26:39;11.97;;;8.97;;
8488;SDS011;4281;45.772;12.852;2023-02-07T09:29:07;10.93;;;8.37;;
8488;SDS011;4281;45.772;12.852;2023-02-07T09:31:37;11.80;;;8.70;;
8488;SDS011;4281;45.772;12.852;2023-02-07T09:34:06;10.20;;;7.97;;
8488;SDS011;4281;45.772;12.852;2023-02-07T09:36:34;12.10;;;8.37;;
8488;SDS011;4281;45.772;12.852;2023-02-07T09:39:02;10.47;;;7.83;;
8488;SDS011;4281;45.772;12.852;2023-02-07T09:41:35;10.37;;;8.20;;
8488;SDS011;4281;45.772;12.852;2023-02-07T09:44:11;9.93;;;7.90;;
8488;SDS011;4281;45.772;12.852;2023-02-07T09:49:32;8.63;;;7.40;;
8488;SDS011;4281;45.772;12.852;2023-02-07T09:52:02;9.03;;;7.43;;
8488;SDS011;4281;45.772;12.852;2023-02-07T09:54:32;8.97;;;7.07;;
8488;SDS011;4281;45.772;12.852;2023-02-07T09:57:03;9.63;;;7.03;;
8488;SDS011;4281;45.772;12.852;2023-02-07T09:59:39;9.20;;;7.43;;
8488;SDS011;4281;45.772;12.852;2023-02-07T10:02:14;8.40;;;7.07;;
8488;SDS011;4281;45.772;12.852;2023-02-07T10:04:46;7.83;;;6.50;;
8488;SDS011;4281;45.772;12.852;2023-02-07T10:07:15;8.23;;;6.43;;
8488;SDS011;4281;45.772;12.852;2023-02-07T10:09:43;9.20;;;7.10;;
8488;SDS011;4281;45.772;12.852;2023-02-07T10:12:22;7.67;;;6.63;;
8488;SDS011;4281;45.772;12.852;2023-02-07T10:15:01;8.60;;;6.93;;
8488;SDS011;4281;45.772;12.852;2023-02-07T10:17:42;8.50;;;6.90;;
8488;SDS011;4281;45.772;12.852;2023-02-07T10:20:25;9.87;;;7.37;;
8488;SDS011;4281;45.772;12.852;2023-02-07T10:22:59;7.93;;;6.67;;
8488;SDS011;4281;45.772;12.852;2023-02-07T10:25:37;9.07;;;7.07;;
8488;SDS011;4281;45.772;12.852;2023-02-07T10:31:11;7.70;;;6.47;;
8488;SDS011;4281;45.772;12.852;2023-02-07T10:33:43;9.73;;;7.40;;
8488;SDS011;4281;45.772;12.852;2023-02-07T10:36:15;8.37;;;6.60;;
8488;SDS011;4281;45.772;12.852;2023-02-07T10:38:45;7.70;;;6.60;;
8488;SDS011;4281;45.772;12.852;2023-02-07T10:41:34;7.87;;;6.53;;
8488;SDS011;4281;45.772;12.852;2023-02-07T10:44:03;8.30;;;6.10;;
8488;SDS011;4281;45.772;12.852;2023-02-07T10:46:32;7.90;;;6.77;;
8488;SDS011;4281;45.772;12.852;2023-02-07T10:49:01;8.17;;;6.70;;
8488;SDS011;4281;45.772;12.852;2023-02-07T10:51:32;8.30;;;6.90;;
8488;SDS011;4281;45.772;12.852;2023-02-07T10:54:02;8.07;;;6.60;;
8488;SDS011;4281;45.772;12.852;2023-02-07T10:56:33;9.10;;;6.40;;
8488;SDS011;4281;45.772;12.852;2023-02-07T10:59:22;8.27;;;6.77;;
8488;SDS011;4281;45.772;12.852;2023-02-07T11:02:01;8.37;;;7.10;;
8488;SDS011;4281;45.772;12.852;2023-02-07T11:04:33;7.10;;;6.40;;
8488;SDS011;4281;45.772;12.852;2023-02-07T11:07:04;7.53;;;6.73;;
8488;SDS011;4281;45.772;12.852;2023-02-07T11:09:34;8.00;;;6.97;;
8488;SDS011;4281;45.772;12.852;2023-02-07T11:12:11;7.90;;;6.77;;
8488;SDS011;4281;45.772;12.852;2023-02-07T11:14:42;8.43;;;6.80;;
8488;SDS011;4281;45.772;12.852;2023-02-07T11:17:28;7.87;;;6.37;;
8488;SDS011;4281;45.772;12.852;2023-02-07T11:19:57;7.77;;;6.37;;
8488;SDS011;4281;45.772;12.852;2023-02-07T11:22:31;7.47;;;6.67;;
8488;SDS011;4281;45.772;12.852;2023-02-07T11:25:00;7.37;;;5.93;;
8488;SDS011;4281;45.772;12.852;2023-02-07T11:27:31;7.07;;;6.37;;
8488;SDS011;4281;45.772;12.852;2023-02-07T11:30:05;8.50;;;7.13;;
8488;SDS011;4281;45.772;12.852;2023-02-07T11:32:35;8.07;;;6.87;;
8488;SDS011;4281;45.772;12.852;2023-02-07T11:35:03;7.77;;;6.67;;
8488;SDS011;4281;45.772;12.852;2023-02-07T11:37:36;8.67;;;6.60;;
8488;SDS011;4281;45.772;12.852;2023-02-07T11:40:16;7.90;;;6.60;;
8488;SDS011;4281;45.772;12.852;2023-02-07T11:42:48;7.20;;;6.37;;
8488;SDS011;4281;45.772;12.852;2023-02-07T11:45:19;7.60;;;6.73;;
8488;SDS011;4281;45.772;12.852;2023-02-07T11:47:48;8.93;;;6.33;;
8488;SDS011;4281;45.772;12.852;2023-02-07T11:50:21;8.53;;;7.03;;
8488;SDS011;4281;45.772;12.852;2023-02-07T11:52:52;8.03;;;6.73;;
8488;SDS011;4281;45.772;12.852;2023-02-07T11:55:22;8.23;;;7.13;;
8488;SDS011;4281;45.772;12.852;2023-02-07T11:57:53;8.57;;;6.87;;
8488;SDS011;4281;45.772;12.852;2023-02-07T12:00:24;7.33;;;6.40;;
8488;SDS011;4281;45.772;12.852;2023-02-07T12:02:58;8.33;;;6.27;;
8488;SDS011;4281;45.772;12.852;2023-02-07T12:05:28;7.97;;;7.17;;
8488;SDS011;4281;45.772;12.852;2023-02-07T12:08:00;8.40;;;7.50;;
8488;SDS011;4281;45.772;12.852;2023-02-07T12:10:31;9.00;;;7.03;;
8488;SDS011;4281;45.772;12.852;2023-02-07T12:13:02;8.50;;;7.33;;
8488;SDS011;4281;45.772;12.852;2023-02-07T12:15:33;8.40;;;6.87;;
8488;SDS011;4281;45.772;12.852;2023-02-07T12:18:05;8.73;;;7.13;;
8488;SDS011;4281;45.772;12.852;2023-02-07T12:20:34;9.57;;;8.03;;
8488;SDS011;4281;45.772;12.852;2023-02-07T12:23:06;9.10;;;7.80;;
8488;SDS011;4281;45.772;12.852;2023-02-07T12:25:59;9.00;;;7.60;;
8488;SDS011;4281;45.772;12.852;2023-02-07T12:28:30;8.63;;;7.73;;
8488;SDS011;4281;45.772;12.852;2023-02-07T12:31:02;8.70;;;7.47;;
8488;SDS011;4281;45.772;12.852;2023-02-07T12:33:38;8.13;;;7.27;;
8488;SDS011;4281;45.772;12.852;2023-02-07T12:36:11;8.57;;;7.37;;
8488;SDS011;4281;45.772;12.852;2023-02-07T12:38:43;10.60;;;8.10;;
8488;SDS011;4281;45.772;12.852;2023-02-07T12:41:15;9.33;;;8.23;;
8488;SDS011;4281;45.772;12.852;2023-02-07T12:43:49;9.30;;;8.20;;
8488;SDS011;4281;45.772;12.852;2023-02-07T12:46:25;9.23;;;7.60;;
8488;SDS011;4281;45.772;12.852;2023-02-07T12:52:09;11.13;;;8.43;;
8488;SDS011;4281;45.772;12.852;2023-02-07T12:54:49;8.63;;;6.93;;
8488;SDS011;4281;45.772;12.852;2023-02-07T12:57:26;9.47;;;8.17;;
8488;SDS011;4281;45.772;12.852;2023-02-07T13:00:01;9.20;;;7.27;;
8488;SDS011;4281;45.772;12.852;2023-02-07T13:02:37;8.33;;;7.47;;
8488;SDS011;4281;45.772;12.852;2023-02-07T13:05:16;8.10;;;6.83;;
8488;SDS011;4281;45.772;12.852;2023-02-07T13:07:54;8.23;;;6.97;;
8488;SDS011;4281;45.772;12.852;2023-02-07T13:10:30;8.00;;;7.20;;
8488;SDS011;4281;45.772;12.852;2023-02-07T13:13:05;8.83;;;6.97;;
8488;SDS011;4281;45.772;12.852;2023-02-07T13:15:40;7.30;;;6.50;;
8488;SDS011;4281;45.772;12.852;2023-02-07T13:18:13;8.23;;;6.93;;
8488;SDS011;4281;45.772;12.852;2023-02-07T13:20:49;8.07;;;6.43;;
8488;SDS011;4281;45.772;12.852;2023-02-07T13:23:20;7.03;;;6.33;;
8488;SDS011;4281;45.772;12.852;2023-02-07T13:25:53;7.97;;;6.43;;
8488;SDS011;4281;45.772;12.852;2023-02-07T13:28:24;7.30;;;6.60;;
8488;SDS011;4281;45.772;12.852;2023-02-07T13:31:02;7.70;;;6.50;;
8488;SDS011;4281;45.772;12.852;2023-02-07T13:33:32;7.53;;;6.27;;
8488;SDS011;4281;45.772;12.852;2023-02-07T13:36:02;8.30;;;6.43;;
8488;SDS011;4281;45.772;12.852;2023-02-07T13:38:36;9.47;;;6.53;;
8488;SDS011;4281;45.772;12.852;2023-02-07T13:41:11;8.53;;;6.43;;
8488;SDS011;4281;45.772;12.852;2023-02-07T13:43:48;6.60;;;5.77;;
8488;SDS011;4281;45.772;12.852;2023-02-07T13:46:42;7.77;;;6.23;;
8488;SDS011;4281;45.772;12.852;2023-02-07T13:49:42;7.17;;;5.90;;
8488;SDS011;4281;45.772;12.852;2023-02-07T13:52:13;6.77;;;5.40;;
8488;SDS011;4281;45.772;12.852;2023-02-07T13:54:48;7.30;;;5.67;;
8488;SDS011;4281;45.772;12.852;2023-02-07T13:57:36;6.13;;;5.53;;
8488;SDS011;4281;45.772;12.852;2023-02-07T14:00:23;6.53;;;5.80;;
8488;SDS011;4281;45.772;12.852;2023-02-07T14:02:53;6.73;;;5.93;;
8488;SDS011;4281;45.772;12.852;2023-02-07T14:05:22;6.57;;;5.87;;
8488;SDS011;4281;45.772;12.852;2023-02-07T14:07:56;7.23;;;6.23;;
8488;SDS011;4281;45.772;12.852;2023-02-07T14:10:35;7.07;;;6.37;;
8488;SDS011;4281;45.772;12.852;2023-02-07T14:13:14;7.20;;;6.47;;
8488;SDS011;4281;45.772;12.852;2023-02-07T14:15:54;7.30;;;6.50;;
8488;SDS011;4281;45.772;12.852;2023-02-07T14:18:33;8.27;;;6.77;;
8488;SDS011;4281;45.772;12.852;2023-02-07T14:21:19;8.13;;;5.90;;
8488;SDS011;4281;45.772;12.852;2023-02-07T14:23:56;6.37;;;5.60;;
8488;SDS011;4281;45.772;12.852;2023-02-07T14:26:41;7.30;;;6.47;;
8488;SDS011;4281;45.772;12.852;2023-02-07T14:32:31;6.20;;;5.60;;
8488;SDS011;4281;45.772;12.852;2023-02-07T14:37:59;7.07;;;5.97;;
8488;SDS011;4281;45.772;12.852;2023-02-07T14:40:32;5.93;;;5.33;;
8488;SDS011;4281;45.772;12.852;2023-02-07T14:43:02;6.67;;;5.90;;
8488;SDS011;4281;45.772;12.852;2023-02-07T14:45:34;5.80;;;5.20;;
8488;SDS011;4281;45.772;12.852;2023-02-07T14:48:06;6.07;;;5.07;;
8488;SDS011;4281;45.772;12.852;2023-02-07T14:50:58;6.07;;;4.80;;
8488;SDS011;4281;45.772;12.852;2023-02-07T14:53:26;5.77;;;5.03;;
8488;SDS011;4281;45.772;12.852;2023-02-07T14:55:54;5.63;;;4.80;;
8488;SDS011;4281;45.772;12.852;2023-02-07T14:58:30;6.20;;;5.27;;
8488;SDS011;4281;45.772;12.852;2023-02-07T15:01:02;5.87;;;5.17;;
8488;SDS011;4281;45.772;12.852;2023-02-07T15:03:31;6.20;;;4.80;;
8488;SDS011;4281;45.772;12.852;2023-02-07T15:06:00;5.70;;;4.80;;
8488;SDS011;4281;45.772;12.852;2023-02-07T15:08:31;5.73;;;4.80;;
8488;SDS011;4281;45.772;12.852;2023-02-07T15:11:01;6.57;;;5.07;;
8488;SDS011;4281;45.772;12.852;2023-02-07T15:13:30;5.90;;;5.23;;
8488;SDS011;4281;45.772;12.852;2023-02-07T15:16:02;5.50;;;4.60;;
8488;SDS011;4281;45.772;12.852;2023-02-07T15:18:33;5.30;;;4.80;;
8488;SDS011;4281;45.772;12.852;2023-02-07T15:21:02;6.30;;;5.00;;
8488;SDS011;4281;45.772;12.852;2023-02-07T15:23:30;4.70;;;4.20;;
8488;SDS011;4281;45.772;12.852;2023-02-07T15:26:01;5.40;;;4.80;;
8488;SDS011;4281;45.772;12.852;2023-02-07T15:28:32;6.30;;;5.10;;
8488;SDS011;4281;45.772;12.852;2023-02-07T15:31:00;4.67;;;4.27;;
8488;SDS011;4281;45.772;12.852;2023-02-07T15:33:30;5.70;;;4.70;;
8488;SDS011;4281;45.772;12.852;2023-02-07T15:36:04;5.70;;;4.73;;
8488;SDS011;4281;45.772;12.852;2023-02-07T15:38:32;4.80;;;4.30;;
8488;SDS011;4281;45.772;12.852;2023-02-07T15:41:00;5.33;;;4.60;;
8488;SDS011;4281;45.772;12.852;2023-02-07T15:43:31;5.27;;;4.23;;